createdAt,value
2022-11-29T00:01:33.972Z,68.05
2022-11-29T00:04:01.443Z,49.80
2022-11-29T00:06:32.733Z,62.45
2022-11-29T00:09:02.399Z,39.20
2022-11-29T00:11:51.337Z,61.17
2022-11-29T00:14:19.592Z,71.60
2022-11-29T00:16:50.897Z,69.28
2022-11-29T00:19:17.596Z,59.13
2022-11-29T00:21:44.377Z,67.28
2022-11-29T00:24:11.178Z,65.30
2022-11-29T00:26:38.247Z,70.40
2022-11-29T00:29:05.037Z,60.90
2022-11-29T00:31:32.879Z,59.05
2022-11-29T00:34:01.601Z,90.75
2022-11-29T00:36:28.851Z,41.92
2022-11-29T00:38:55.587Z,41.17
2022-11-29T00:41:22.303Z,56.95
2022-11-29T00:43:48.952Z,55.78
2022-11-29T00:46:15.753Z,52.95
2022-11-29T00:48:42.407Z,53.90
2022-11-29T00:51:09.300Z,58.20
2022-11-29T00:53:36.999Z,56.28
2022-11-29T00:56:04.841Z,63.30
2022-11-29T00:58:31.752Z,55.22
2022-11-29T01:00:58.431Z,63.92
2022-11-29T01:03:25.343Z,60.63
2022-11-29T01:05:52.304Z,58.20
2022-11-29T01:08:19.294Z,54.67
2022-11-29T01:10:46.044Z,53.97
2022-11-29T01:13:14.041Z,53.53
2022-11-29T01:15:41.603Z,57.20
2022-11-29T01:18:08.182Z,58.13
2022-11-29T01:20:34.800Z,59.22
2022-11-29T01:23:01.493Z,46.10
2022-11-29T01:25:29.372Z,58.58
2022-11-29T01:27:56.001Z,60.20
2022-11-29T01:30:22.676Z,45.70
2022-11-29T01:32:49.408Z,51.47
2022-11-29T01:35:16.139Z,54.50
2022-11-29T01:37:42.764Z,52.05
2022-11-29T01:40:09.741Z,69.18
2022-11-29T01:42:36.290Z,57.95
2022-11-29T01:45:08.585Z,46.58
2022-11-29T01:47:45.849Z,62.35
2022-11-29T01:50:13.290Z,52.38
2022-11-29T01:52:40.635Z,51.50
2022-11-29T01:55:09.872Z,51.05
2022-11-29T01:57:39.973Z,55.63
2022-11-29T02:00:16.115Z,47.97
2022-11-29T02:02:52.050Z,48.65
2022-11-29T02:05:20.185Z,47.05
2022-11-29T02:07:50.599Z,48.92
2022-11-29T02:10:18.340Z,45.25
2022-11-29T02:13:08.037Z,39.95
2022-11-29T02:15:46.331Z,41.28
2022-11-29T02:18:19.465Z,39.40
2022-11-29T02:21:07.358Z,51.42
2022-11-29T02:23:58.296Z,49.92
2022-11-29T02:26:49.055Z,60.70
2022-11-29T02:29:43.441Z,46.90
2022-11-29T02:32:41.242Z,50.22
2022-11-29T02:35:13.846Z,46.42
2022-11-29T02:37:58.818Z,44.10
2022-11-29T02:40:34.740Z,67.50
2022-11-29T02:43:19.272Z,51.75
2022-11-29T02:46:04.728Z,53.92
2022-11-29T02:48:53.837Z,41.50
2022-11-29T02:51:32.962Z,52.90
2022-11-29T02:54:21.251Z,48.90
2022-11-29T02:57:00.207Z,45.70
2022-11-29T02:59:41.718Z,49.78
2022-11-29T03:02:35.803Z,41.58
2022-11-29T03:05:28.482Z,44.90
2022-11-29T03:08:10.192Z,53.20
2022-11-29T03:10:49.042Z,50.92
2022-11-29T03:13:41.794Z,51.58
2022-11-29T03:16:43.084Z,41.00
2022-11-29T03:19:19.406Z,41.83
2022-11-29T03:21:59.591Z,45.67
2022-11-29T03:24:40.803Z,65.13
2022-11-29T03:27:13.619Z,46.97
2022-11-29T03:29:51.330Z,53.95
2022-11-29T03:32:35.395Z,42.40
2022-11-29T03:35:13.472Z,54.42
2022-11-29T03:37:59.828Z,55.10
2022-11-29T03:40:52.377Z,73.63
2022-11-29T03:43:30.808Z,44.38
2022-11-29T03:46:11.232Z,52.10
2022-11-29T03:48:48.332Z,63.75
2022-11-29T03:51:38.901Z,63.38
2022-11-29T03:54:14.304Z,54.42
2022-11-29T03:56:41.885Z,44.85
2022-11-29T03:59:20.129Z,50.08
2022-11-29T04:02:24.257Z,45.22
2022-11-29T04:05:09.218Z,60.70
2022-11-29T04:08:14.524Z,59.25
2022-11-29T04:10:56.278Z,52.05
2022-11-29T04:13:44.594Z,70.68
2022-11-29T04:16:48.042Z,61.88
2022-11-29T04:19:43.927Z,49.67
2022-11-29T04:22:16.460Z,68.60
2022-11-29T04:25:01.187Z,55.92
2022-11-29T04:27:41.563Z,72.25
2022-11-29T04:30:20.515Z,74.18
2022-11-29T04:32:59.276Z,56.35
2022-11-29T04:35:56.822Z,58.50
2022-11-29T04:38:42.341Z,45.13
2022-11-29T04:41:36.697Z,39.97
2022-11-29T04:44:24.939Z,44.97
2022-11-29T04:47:00.678Z,58.78
2022-11-29T04:49:36.081Z,56.60
2022-11-29T04:52:24.887Z,49.67
2022-11-29T04:55:26.162Z,51.22
2022-11-29T04:58:04.890Z,49.60
2022-11-29T05:00:39.327Z,45.63
2022-11-29T05:05:59.140Z,66.00
2022-11-29T05:08:37.603Z,51.42
2022-11-29T05:11:26.363Z,56.95
2022-11-29T05:14:02.422Z,47.08
2022-11-29T05:16:32.459Z,54.47
2022-11-29T05:19:20.586Z,44.95
2022-11-29T05:21:52.250Z,41.55
2022-11-29T05:24:47.936Z,46.38
2022-11-29T05:27:17.353Z,51.97
2022-11-29T05:30:15.301Z,56.22
2022-11-29T05:32:44.972Z,60.08
2022-11-29T05:35:40.865Z,62.33
2022-11-29T05:38:14.262Z,52.97
2022-11-29T05:41:08.855Z,59.33
2022-11-29T05:43:46.731Z,54.97
2022-11-29T05:46:28.873Z,49.42
2022-11-29T05:49:10.759Z,64.00
2022-11-29T05:52:01.160Z,62.85
2022-11-29T05:54:34.434Z,62.15
2022-11-29T05:57:33.871Z,58.50
2022-11-29T06:00:03.219Z,49.25
2022-11-29T06:02:48.536Z,58.17
2022-11-29T06:05:28.781Z,46.05
2022-11-29T06:07:55.390Z,52.33
2022-11-29T06:10:30.015Z,41.72
2022-11-29T06:13:11.526Z,55.42
2022-11-29T06:16:08.043Z,56.38
2022-11-29T06:18:56.527Z,54.53
2022-11-29T06:21:41.958Z,69.43
2022-11-29T06:24:27.052Z,47.58
2022-11-29T06:27:05.409Z,53.53
2022-11-29T06:29:56.596Z,52.58
2022-11-29T06:32:29.169Z,81.30
2022-11-29T06:35:05.726Z,70.68
2022-11-29T06:37:42.998Z,63.08
2022-11-29T06:40:12.943Z,65.80
2022-11-29T06:42:39.575Z,60.95
2022-11-29T06:45:07.109Z,64.00
2022-11-29T06:47:46.958Z,59.60
2022-11-29T06:50:29.526Z,69.28
2022-11-29T06:53:10.249Z,82.63
2022-11-29T06:55:52.613Z,72.18
2022-11-29T06:58:50.999Z,61.60
2022-11-29T07:01:53.914Z,57.08
2022-11-29T07:04:46.802Z,57.13
2022-11-29T07:07:18.514Z,65.50
2022-11-29T07:09:47.353Z,52.00
2022-11-29T07:12:14.720Z,59.63
2022-11-29T07:14:41.625Z,78.75
2022-11-29T07:17:27.566Z,67.13
2022-11-29T07:20:01.623Z,71.13
2022-11-29T07:22:46.390Z,57.00
2022-11-29T07:25:42.203Z,62.33
2022-11-29T07:28:47.061Z,59.30
2022-11-29T07:31:28.797Z,52.72
2022-11-29T07:34:37.057Z,65.32
2022-11-29T07:37:30.966Z,68.50
2022-11-29T07:40:03.514Z,70.80
2022-11-29T07:43:01.137Z,109.13
2022-11-29T07:45:29.970Z,83.68
2022-11-29T07:48:05.645Z,95.43
2022-11-29T07:50:32.331Z,77.43
2022-11-29T07:52:59.809Z,97.30
2022-11-29T07:55:27.179Z,82.15
2022-11-29T07:57:53.929Z,92.65
2022-11-29T08:00:21.604Z,100.53
2022-11-29T08:02:50.083Z,91.18
2022-11-29T08:05:17.363Z,103.93
2022-11-29T08:07:44.175Z,86.43
2022-11-29T08:10:14.821Z,76.85
2022-11-29T08:12:50.326Z,81.55
2022-11-29T08:15:21.304Z,73.60
2022-11-29T08:17:48.381Z,49.80
2022-11-29T08:20:16.711Z,54.78
2022-11-29T08:22:43.571Z,53.22
2022-11-29T08:25:10.885Z,77.95
2022-11-29T08:27:38.764Z,32.15
2022-11-29T08:30:06.893Z,44.28
2022-11-29T08:32:34.173Z,49.03
2022-11-29T08:35:00.879Z,49.47
2022-11-29T08:37:27.460Z,51.00
2022-11-29T08:39:55.344Z,71.68
2022-11-29T08:42:21.984Z,64.68
2022-11-29T08:44:48.690Z,40.42
2022-11-29T08:47:33.604Z,54.97
2022-11-29T08:52:48.452Z,45.47
2022-11-29T08:55:15.931Z,34.10
2022-11-29T08:57:42.752Z,63.05
2022-11-29T09:00:10.455Z,58.33
2022-11-29T09:02:37.707Z,62.90
2022-11-29T09:05:05.936Z,62.20
2022-11-29T09:07:32.938Z,59.70
2022-11-29T09:10:04.969Z,67.25
2022-11-29T09:12:32.820Z,61.72
2022-11-29T09:14:59.825Z,45.58
2022-11-29T09:17:27.016Z,57.08
2022-11-29T09:19:53.737Z,57.80
2022-11-29T09:22:20.589Z,55.00
2022-11-29T09:24:47.576Z,68.97
2022-11-29T09:27:14.633Z,46.53
2022-11-29T09:29:41.281Z,42.13
2022-11-29T09:32:08.009Z,53.97
2022-11-29T09:34:34.700Z,41.75
2022-11-29T09:37:01.494Z,66.47
2022-11-29T09:39:30.531Z,46.60
2022-11-29T09:42:27.525Z,48.83
2022-11-29T09:45:13.031Z,37.08
2022-11-29T09:47:58.087Z,42.40
2022-11-29T09:50:57.684Z,39.95
2022-11-29T09:53:30.438Z,34.80
2022-11-29T09:56:05.950Z,39.60
2022-11-29T09:58:41.168Z,48.38
2022-11-29T10:01:13.179Z,38.53
2022-11-29T10:03:48.597Z,34.58
2022-11-29T10:06:26.796Z,68.32
2022-11-29T10:09:06.005Z,66.55
2022-11-29T10:11:44.022Z,63.90
2022-11-29T10:14:20.382Z,95.47
2022-11-29T10:17:04.186Z,45.88
2022-11-29T10:19:48.143Z,31.63
2022-11-29T10:22:59.369Z,77.50
2022-11-29T10:25:45.570Z,27.33
2022-11-29T10:28:33.629Z,31.48
2022-11-29T10:31:37.059Z,95.40
2022-11-29T10:34:13.647Z,63.63
2022-11-29T10:36:52.921Z,45.47
2022-11-29T10:39:45.299Z,47.30
2022-11-29T10:42:39.090Z,47.50
2022-11-29T10:45:18.186Z,39.10
2022-11-29T10:47:47.658Z,38.60
2022-11-29T10:50:21.544Z,34.20
2022-11-29T10:52:48.230Z,34.15
2022-11-29T10:55:17.806Z,46.80
2022-11-29T10:58:12.597Z,59.63
2022-11-29T11:00:46.929Z,45.25
2022-11-29T11:03:25.863Z,38.03
2022-11-29T11:06:19.937Z,48.47
2022-11-29T11:08:55.834Z,67.32
2022-11-29T11:11:31.584Z,96.55
2022-11-29T11:14:32.082Z,38.88
2022-11-29T11:17:32.861Z,25.15
2022-11-29T11:20:08.432Z,29.27
2022-11-29T11:22:39.929Z,30.85
2022-11-29T11:25:25.245Z,28.15
2022-11-29T11:27:52.052Z,20.75
2022-11-29T11:30:24.005Z,23.25
2022-11-29T11:33:16.427Z,19.05
2022-11-29T11:35:43.085Z,29.77
2022-11-29T11:38:17.855Z,38.28
2022-11-29T11:40:45.252Z,24.52
2022-11-29T11:43:30.684Z,22.42
2022-11-29T11:45:57.377Z,28.42
2022-11-29T11:48:24.575Z,24.45
2022-11-29T11:50:52.954Z,34.53
2022-11-29T11:53:25.023Z,29.17
2022-11-29T11:56:01.516Z,23.65
2022-11-29T11:58:56.944Z,23.70
2022-11-29T12:01:23.548Z,22.95
2022-11-29T12:04:25.458Z,33.28
2022-11-29T12:07:00.140Z,24.67
2022-11-29T12:09:48.548Z,21.13
2022-11-29T12:12:25.767Z,18.65
2022-11-29T12:14:58.558Z,21.88
2022-11-29T12:17:31.542Z,22.25
2022-11-29T12:20:16.618Z,11.82
2022-11-29T12:23:12.347Z,24.15
2022-11-29T12:25:49.331Z,30.63
2022-11-29T12:28:20.805Z,23.80
2022-11-29T12:31:05.973Z,37.05
2022-11-29T12:33:46.519Z,29.52
2022-11-29T12:36:58.283Z,25.95
2022-11-29T12:39:25.602Z,21.95
2022-11-29T12:42:03.528Z,24.15
2022-11-29T12:44:36.652Z,24.55
2022-11-29T12:50:28.914Z,23.73
2022-11-29T12:53:07.845Z,27.25
2022-11-29T12:56:00.759Z,15.63
2022-11-29T12:58:45.977Z,20.33
2022-11-29T13:01:29.624Z,16.55
2022-11-29T13:04:07.580Z,15.60
2022-11-29T13:06:43.870Z,20.80
2022-11-29T13:09:25.314Z,30.38
2022-11-29T13:12:18.261Z,42.65
2022-11-29T13:15:03.166Z,28.60
2022-11-29T13:17:57.051Z,22.23
2022-11-29T13:20:52.900Z,23.25
2022-11-29T13:26:37.920Z,15.43
2022-11-29T13:29:07.018Z,16.23
2022-11-29T13:31:37.652Z,17.58
2022-11-29T13:34:15.915Z,19.60
2022-11-29T13:37:06.147Z,31.02
2022-11-29T13:39:40.878Z,24.70
2022-11-29T13:42:21.252Z,33.35
2022-11-29T13:45:03.002Z,30.80
2022-11-29T13:47:29.757Z,24.15
2022-11-29T13:49:57.123Z,21.20
2022-11-29T13:52:28.485Z,19.48
2022-11-29T13:55:14.697Z,24.85
2022-11-29T13:58:14.840Z,25.08
2022-11-29T14:00:43.978Z,21.50
2022-11-29T14:03:28.660Z,43.75
2022-11-29T14:06:14.914Z,36.63
2022-11-29T14:11:43.015Z,19.98
2022-11-29T14:14:22.621Z,28.05
2022-11-29T14:17:02.073Z,21.30
2022-11-29T14:19:36.130Z,43.38
2022-11-29T14:22:02.898Z,46.90
2022-11-29T14:24:32.493Z,59.60
2022-11-29T14:27:09.045Z,56.28
2022-11-29T14:29:51.858Z,27.73
2022-11-29T14:32:26.702Z,20.83
2022-11-29T14:35:10.504Z,14.52
2022-11-29T14:38:01.967Z,22.10
2022-11-29T14:40:44.270Z,17.10
2022-11-29T14:43:33.096Z,31.67
2022-11-29T14:46:29.061Z,29.27
2022-11-29T14:48:56.141Z,47.17
2022-11-29T14:51:29.899Z,43.72
2022-11-29T14:54:39.201Z,32.13
2022-11-29T14:57:43.516Z,23.58
2022-11-29T15:00:12.710Z,46.25
2022-11-29T15:02:47.907Z,40.72
2022-11-29T15:05:21.654Z,61.65
2022-11-29T15:08:14.493Z,60.25
2022-11-29T15:10:50.153Z,47.53
2022-11-29T15:13:24.597Z,55.00
2022-11-29T15:19:08.415Z,30.13
2022-11-29T15:21:49.610Z,38.58
2022-11-29T15:24:17.306Z,11.82
2022-11-29T15:27:04.013Z,18.58
2022-11-29T15:29:31.661Z,21.42
2022-11-29T15:32:01.709Z,39.72
2022-11-29T15:34:50.739Z,41.58
2022-11-29T15:37:23.570Z,31.58
2022-11-29T15:40:05.005Z,44.80
2022-11-29T15:42:43.617Z,22.67
2022-11-29T15:45:29.145Z,27.38
2022-11-29T15:48:29.945Z,17.40
2022-11-29T15:51:28.171Z,35.22
2022-11-29T15:54:12.062Z,41.65
2022-11-29T15:59:22.011Z,39.05
2022-11-29T16:01:52.434Z,40.63
2022-11-29T16:04:21.643Z,30.58
2022-11-29T16:06:49.822Z,26.35
2022-11-29T16:09:27.020Z,24.95
2022-11-29T16:11:53.814Z,56.53
2022-11-29T16:14:28.426Z,53.78
2022-11-29T16:16:58.211Z,36.40
2022-11-29T16:19:37.042Z,41.63
2022-11-29T16:22:12.527Z,42.55
2022-11-29T16:24:58.103Z,46.92
2022-11-29T16:27:25.001Z,35.83
2022-11-29T16:29:55.104Z,36.95
2022-11-29T16:32:26.924Z,39.25
2022-11-29T16:34:54.561Z,45.38
2022-11-29T16:37:26.833Z,108.53
2022-11-29T16:39:59.354Z,104.63
2022-11-29T16:42:28.616Z,97.80
2022-11-29T16:45:02.086Z,104.15
2022-11-29T16:47:58.904Z,114.75
2022-11-29T16:50:30.832Z,146.10
2022-11-29T16:53:32.421Z,132.77
2022-11-29T16:56:01.062Z,102.40
2022-11-29T16:58:28.213Z,106.05
2022-11-29T17:00:55.571Z,101.28
2022-11-29T17:03:22.618Z,78.95
2022-11-29T17:05:49.973Z,46.17
2022-11-29T17:08:16.627Z,88.13
2022-11-29T17:10:43.243Z,112.75
2022-11-29T17:13:11.514Z,100.28
2022-11-29T17:15:38.219Z,87.38
2022-11-29T17:18:04.950Z,77.30
2022-11-29T17:20:31.559Z,87.00
2022-11-29T17:22:58.119Z,77.70
2022-11-29T17:25:24.780Z,96.03
2022-11-29T17:28:00.907Z,76.40
2022-11-29T17:30:32.740Z,56.28
2022-11-29T17:32:59.521Z,45.35
2022-11-29T17:35:26.137Z,45.95
2022-11-29T17:37:52.745Z,41.25
2022-11-29T17:40:20.425Z,25.02
2022-11-29T17:42:48.562Z,44.45
2022-11-29T17:45:15.240Z,107.15
2022-11-29T17:47:44.700Z,100.75
2022-11-29T17:50:11.741Z,77.68
2022-11-29T17:52:39.263Z,73.13
2022-11-29T17:55:06.456Z,75.30
2022-11-29T17:57:33.044Z,86.55
2022-11-29T17:59:59.679Z,72.07
2022-11-29T18:02:26.401Z,73.20
2022-11-29T18:04:55.334Z,84.88
2022-11-29T18:07:21.935Z,109.40
2022-11-29T18:09:49.037Z,121.20
2022-11-29T18:12:15.766Z,112.30
2022-11-29T18:14:42.418Z,106.03
2022-11-29T18:17:09.090Z,135.85
2022-11-29T18:19:35.861Z,139.27
2022-11-29T18:22:03.003Z,150.77
2022-11-29T18:24:29.669Z,146.30
2022-11-29T18:26:56.276Z,143.32
2022-11-29T18:29:23.317Z,99.53
2022-11-29T18:31:50.325Z,89.47
2022-11-29T18:34:17.009Z,76.40
2022-11-29T18:36:46.358Z,70.03
2022-11-29T18:39:18.441Z,83.15
2022-11-29T18:41:48.014Z,65.50
2022-11-29T18:44:17.186Z,74.68
2022-11-29T18:46:45.325Z,55.03
2022-11-29T18:49:14.891Z,68.18
2022-11-29T18:51:44.633Z,58.78
2022-11-29T18:54:12.104Z,72.05
2022-11-29T18:56:38.715Z,60.65
2022-11-29T18:59:12.447Z,75.00
2022-11-29T19:01:43.638Z,74.20
2022-11-29T19:04:13.825Z,65.75
2022-11-29T19:06:40.939Z,81.00
2022-11-29T19:09:15.868Z,66.78
2022-11-29T19:11:42.603Z,81.65
2022-11-29T19:14:12.773Z,95.75
2022-11-29T19:16:42.179Z,89.60
2022-11-29T19:19:09.063Z,147.02
2022-11-29T19:21:36.137Z,147.25
2022-11-29T19:24:05.719Z,160.10
2022-11-29T19:26:33.584Z,113.10
2022-11-29T19:29:01.907Z,93.18
2022-11-29T19:31:28.913Z,92.28
2022-11-29T19:33:56.289Z,94.45
2022-11-29T19:36:28.569Z,90.38
2022-11-29T19:39:01.021Z,97.30
2022-11-29T19:41:30.518Z,120.78
2022-11-29T19:43:59.804Z,92.80
2022-11-29T19:46:31.888Z,87.70
2022-11-29T19:49:00.372Z,93.55
2022-11-29T19:51:28.782Z,111.53
2022-11-29T19:53:57.996Z,126.20
2022-11-29T19:56:25.593Z,97.55
2022-11-29T19:58:52.461Z,100.97
2022-11-29T20:01:22.567Z,102.38
2022-11-29T20:03:49.960Z,96.22
2022-11-29T20:06:18.231Z,93.63
2022-11-29T20:08:45.659Z,91.35
2022-11-29T20:11:15.481Z,95.82
2022-11-29T20:13:44.587Z,107.32
2022-11-29T20:16:14.677Z,97.00
2022-11-29T20:18:50.160Z,174.23
2022-11-29T20:21:31.853Z,105.82
2022-11-29T20:24:07.857Z,93.28
2022-11-29T20:26:37.585Z,97.82
2022-11-29T20:29:05.316Z,105.47
2022-11-29T20:31:34.205Z,137.05
2022-11-29T20:34:01.380Z,123.40
2022-11-29T20:36:40.279Z,108.18
2022-11-29T20:39:18.537Z,119.63
2022-11-29T20:41:51.282Z,121.32
2022-11-29T20:44:33.145Z,125.88
2022-11-29T20:47:00.202Z,126.65
2022-11-29T20:49:27.139Z,77.65
2022-11-29T20:52:04.806Z,88.00
2022-11-29T20:54:31.398Z,90.05
2022-11-29T20:56:58.057Z,84.32
2022-11-29T20:59:24.620Z,88.50
2022-11-29T21:01:51.220Z,71.00
2022-11-29T21:04:23.144Z,68.28
2022-11-29T21:06:50.285Z,81.78
2022-11-29T21:09:16.878Z,79.68
2022-11-29T21:11:43.662Z,72.85
2022-11-29T21:14:10.686Z,76.97
2022-11-29T21:16:37.587Z,96.35
2022-11-29T21:19:04.513Z,71.95
2022-11-29T21:21:31.068Z,77.22
2022-11-29T21:24:00.628Z,93.30
2022-11-29T21:26:50.807Z,80.72
2022-11-29T21:29:19.139Z,96.03
2022-11-29T21:31:48.408Z,70.90
2022-11-29T21:34:15.051Z,91.60
2022-11-29T21:36:42.098Z,82.00
2022-11-29T21:39:13.231Z,96.00
2022-11-29T21:41:39.783Z,57.00
2022-11-29T21:44:07.991Z,79.30
2022-11-29T21:46:35.639Z,82.78
2022-11-29T21:49:02.394Z,87.38
2022-11-29T21:51:29.014Z,87.78
2022-11-29T21:53:55.692Z,84.85
2022-11-29T21:56:22.339Z,85.82
2022-11-29T21:58:48.965Z,79.63
2022-11-29T22:01:19.334Z,76.82
2022-11-29T22:03:46.100Z,70.75
2022-11-29T22:06:20.906Z,64.53
2022-11-29T22:08:48.488Z,65.13
2022-11-29T22:11:30.555Z,80.05
2022-11-29T22:14:15.331Z,85.97
2022-11-29T22:17:01.351Z,71.50
2022-11-29T22:19:33.631Z,82.80
2022-11-29T22:22:05.392Z,97.07
2022-11-29T22:24:34.745Z,92.10
2022-11-29T22:27:01.802Z,72.97
2022-11-29T22:29:28.457Z,76.75
2022-11-29T22:31:56.701Z,92.47
2022-11-29T22:34:25.329Z,92.05
2022-11-29T22:36:51.980Z,78.75
2022-11-29T22:39:18.590Z,88.43
2022-11-29T22:41:50.806Z,99.00
2022-11-29T22:44:20.448Z,112.07
2022-11-29T22:46:47.145Z,93.35
2022-11-29T22:49:13.862Z,116.05
2022-11-29T22:51:40.505Z,80.57
2022-11-29T22:54:09.108Z,77.82
2022-11-29T22:56:38.148Z,77.55
2022-11-29T22:59:05.103Z,80.13
2022-11-29T23:01:33.524Z,81.10
2022-11-29T23:04:03.942Z,65.65
2022-11-29T23:06:34.280Z,76.95
2022-11-29T23:09:07.298Z,77.88
2022-11-29T23:11:34.146Z,62.35
2022-11-29T23:14:00.838Z,90.00
2022-11-29T23:16:29.636Z,56.10
2022-11-29T23:19:00.842Z,91.47
2022-11-29T23:21:31.489Z,83.63
2022-11-29T23:24:02.037Z,77.55
2022-11-29T23:26:40.505Z,75.43
2022-11-29T23:29:09.879Z,66.82
2022-11-29T23:31:36.667Z,62.70
2022-11-29T23:34:04.112Z,65.18
2022-11-29T23:36:30.785Z,74.00
2022-11-29T23:38:57.450Z,72.45
2022-11-29T23:41:24.360Z,61.40
2022-11-29T23:43:50.936Z,72.90
2022-11-29T23:46:23.938Z,67.57
2022-11-29T23:48:51.443Z,88.75
2022-11-29T23:51:19.639Z,61.13
2022-11-29T23:53:46.873Z,75.70
2022-11-29T23:56:15.995Z,68.22
2022-11-29T23:58:44.148Z,74.95
